sensor_id;sensor_type;location;lat;lon;timestamp;P1;durP1;ratioP1;P2;durP2;ratioP2
70967;SDS011;58629;48.808;8.820;2023-07-16T00:00:33;1.53;;;0.63;;
70967;SDS011;58629;48.808;8.820;2023-07-16T00:02:58;0.73;;;0.52;;
70967;SDS011;58629;48.808;8.820;2023-07-16T00:05:24;0.70;;;0.50;;
70967;SDS011;58629;48.808;8.820;2023-07-16T00:07:49;0.87;;;0.40;;
70967;SDS011;58629;48.808;8.820;2023-07-16T00:10:15;0.77;;;0.50;;
70967;SDS011;58629;48.808;8.820;2023-07-16T00:12:40;0.77;;;0.40;;
70967;SDS011;58629;48.808;8.820;2023-07-16T00:15:06;0.40;;;0.40;;
70967;SDS011;58629;48.808;8.820;2023-07-16T00:17:32;0.93;;;0.30;;
70967;SDS011;58629;48.808;8.820;2023-07-16T00:19:58;0.57;;;0.40;;
70967;SDS011;58629;48.808;8.820;2023-07-16T00:22:23;4.60;;;0.50;;
70967;SDS011;58629;48.808;8.820;2023-07-16T00:24:49;0.60;;;0.40;;
70967;SDS011;58629;48.808;8.820;2023-07-16T00:27:14;0.40;;;0.40;;
70967;SDS011;58629;48.808;8.820;2023-07-16T00:29:40;0.53;;;0.30;;
70967;SDS011;58629;48.808;8.820;2023-07-16T00:32:05;0.60;;;0.40;;
70967;SDS011;58629;48.808;8.820;2023-07-16T00:34:30;0.40;;;0.32;;
70967;SDS011;58629;48.808;8.820;2023-07-16T00:36:56;0.30;;;0.30;;
70967;SDS011;58629;48.808;8.820;2023-07-16T00:39:27;0.20;;;0.20;;
70967;SDS011;58629;48.808;8.820;2023-07-16T00:41:53;0.53;;;0.30;;
70967;SDS011;58629;48.808;8.820;2023-07-16T00:44:19;0.75;;;0.28;;
70967;SDS011;58629;48.808;8.820;2023-07-16T00:46:44;0.30;;;0.30;;
70967;SDS011;58629;48.808;8.820;2023-07-16T00:49:09;0.40;;;0.33;;
70967;SDS011;58629;48.808;8.820;2023-07-16T00:51:35;0.80;;;0.40;;
70967;SDS011;58629;48.808;8.820;2023-07-16T00:54:00;1.23;;;0.70;;
70967;SDS011;58629;48.808;8.820;2023-07-16T00:56:26;0.60;;;0.60;;
70967;SDS011;58629;48.808;8.820;2023-07-16T00:58:52;0.70;;;0.57;;
70967;SDS011;58629;48.808;8.820;2023-07-16T01:01:17;1.73;;;0.60;;
70967;SDS011;58629;48.808;8.820;2023-07-16T01:03:42;0.88;;;0.40;;
70967;SDS011;58629;48.808;8.820;2023-07-16T01:06:13;1.10;;;0.50;;
70967;SDS011;58629;48.808;8.820;2023-07-16T01:09:03;0.85;;;0.45;;
70967;SDS011;58629;48.808;8.820;2023-07-16T01:11:33;0.47;;;0.45;;
70967;SDS011;58629;48.808;8.820;2023-07-16T01:14:00;1.67;;;0.50;;
70967;SDS011;58629;48.808;8.820;2023-07-16T01:16:27;1.00;;;0.60;;
70967;SDS011;58629;48.808;8.820;2023-07-16T01:18:52;0.50;;;0.50;;
70967;SDS011;58629;48.808;8.820;2023-07-16T01:21:19;0.90;;;0.60;;
70967;SDS011;58629;48.808;8.820;2023-07-16T01:26:39;2.28;;;0.68;;
70967;SDS011;58629;48.808;8.820;2023-07-16T01:29:28;1.27;;;0.60;;
70967;SDS011;58629;48.808;8.820;2023-07-16T01:31:58;4.35;;;1.00;;
70967;SDS011;58629;48.808;8.820;2023-07-16T01:34:26;1.67;;;0.70;;
70967;SDS011;58629;48.808;8.820;2023-07-16T01:36:55;0.93;;;0.60;;
70967;SDS011;58629;48.808;8.820;2023-07-16T01:39:20;3.55;;;0.90;;
70967;SDS011;58629;48.808;8.820;2023-07-16T01:41:46;1.45;;;0.77;;
70967;SDS011;58629;48.808;8.820;2023-07-16T01:44:11;0.70;;;0.57;;
70967;SDS011;58629;48.808;8.820;2023-07-16T01:46:37;0.90;;;0.50;;
70967;SDS011;58629;48.808;8.820;2023-07-16T01:49:02;0.70;;;0.50;;
70967;SDS011;58629;48.808;8.820;2023-07-16T01:51:27;1.45;;;0.70;;
70967;SDS011;58629;48.808;8.820;2023-07-16T01:53:53;1.10;;;0.55;;
70967;SDS011;58629;48.808;8.820;2023-07-16T01:56:18;1.67;;;0.80;;
70967;SDS011;58629;48.808;8.820;2023-07-16T01:58:43;3.43;;;1.00;;
70967;SDS011;58629;48.808;8.820;2023-07-16T02:01:09;1.03;;;0.60;;
70967;SDS011;58629;48.808;8.820;2023-07-16T02:03:34;5.23;;;1.00;;
70967;SDS011;58629;48.808;8.820;2023-07-16T02:05:59;1.80;;;1.00;;
70967;SDS011;58629;48.808;8.820;2023-07-16T02:08:25;4.30;;;1.00;;
70967;SDS011;58629;48.808;8.820;2023-07-16T02:10:50;2.03;;;0.90;;
70967;SDS011;58629;48.808;8.820;2023-07-16T02:13:15;1.95;;;0.80;;
70967;SDS011;58629;48.808;8.820;2023-07-16T02:15:42;1.40;;;0.80;;
70967;SDS011;58629;48.808;8.820;2023-07-16T02:18:08;0.73;;;0.70;;
70967;SDS011;58629;48.808;8.820;2023-07-16T02:20:33;4.20;;;1.03;;
70967;SDS011;58629;48.808;8.820;2023-07-16T02:22:58;4.43;;;1.00;;
70967;SDS011;58629;48.808;8.820;2023-07-16T02:25:24;1.97;;;0.93;;
70967;SDS011;58629;48.808;8.820;2023-07-16T02:27:50;1.65;;;0.90;;
70967;SDS011;58629;48.808;8.820;2023-07-16T02:30:16;1.30;;;0.80;;
70967;SDS011;58629;48.808;8.820;2023-07-16T02:32:41;1.20;;;0.80;;
70967;SDS011;58629;48.808;8.820;2023-07-16T02:35:07;0.63;;;0.60;;
70967;SDS011;58629;48.808;8.820;2023-07-16T02:37:32;0.60;;;0.57;;
70967;SDS011;58629;48.808;8.820;2023-07-16T02:39:58;0.80;;;0.63;;
70967;SDS011;58629;48.808;8.820;2023-07-16T02:42:23;1.00;;;0.70;;
70967;SDS011;58629;48.808;8.820;2023-07-16T02:44:49;2.47;;;0.85;;
70967;SDS011;58629;48.808;8.820;2023-07-16T02:47:14;1.35;;;0.80;;
70967;SDS011;58629;48.808;8.820;2023-07-16T02:49:39;1.07;;;0.80;;
70967;SDS011;58629;48.808;8.820;2023-07-16T02:52:05;2.03;;;0.97;;
70967;SDS011;58629;48.808;8.820;2023-07-16T02:54:31;1.92;;;1.00;;
70967;SDS011;58629;48.808;8.820;2023-07-16T02:56:56;2.23;;;0.97;;
70967;SDS011;58629;48.808;8.820;2023-07-16T02:59:22;5.63;;;1.10;;
70967;SDS011;58629;48.808;8.820;2023-07-16T03:01:47;1.45;;;0.90;;
70967;SDS011;58629;48.808;8.820;2023-07-16T03:04:13;3.10;;;1.07;;
70967;SDS011;58629;48.808;8.820;2023-07-16T03:06:38;1.90;;;1.00;;
70967;SDS011;58629;48.808;8.820;2023-07-16T03:09:03;2.40;;;0.90;;
70967;SDS011;58629;48.808;8.820;2023-07-16T03:11:29;1.10;;;0.80;;
70967;SDS011;58629;48.808;8.820;2023-07-16T03:13:54;1.00;;;0.80;;
70967;SDS011;58629;48.808;8.820;2023-07-16T03:16:19;1.43;;;0.83;;
70967;SDS011;58629;48.808;8.820;2023-07-16T03:18:45;2.10;;;0.80;;
70967;SDS011;58629;48.808;8.820;2023-07-16T03:21:10;2.00;;;0.95;;
70967;SDS011;58629;48.808;8.820;2023-07-16T03:23:36;1.90;;;1.20;;
70967;SDS011;58629;48.808;8.820;2023-07-16T03:26:01;2.28;;;1.05;;
70967;SDS011;58629;48.808;8.820;2023-07-16T03:28:27;6.75;;;1.40;;
70967;SDS011;58629;48.808;8.820;2023-07-16T03:30:52;6.27;;;1.37;;
70967;SDS011;58629;48.808;8.820;2023-07-16T03:33:18;4.07;;;1.17;;
70967;SDS011;58629;48.808;8.820;2023-07-16T03:35:45;3.97;;;1.00;;
70967;SDS011;58629;48.808;8.820;2023-07-16T03:38:11;2.22;;;1.00;;
70967;SDS011;58629;48.808;8.820;2023-07-16T03:40:37;1.58;;;0.93;;
70967;SDS011;58629;48.808;8.820;2023-07-16T03:43:03;2.30;;;1.17;;
70967;SDS011;58629;48.808;8.820;2023-07-16T03:45:28;1.07;;;0.93;;
70967;SDS011;58629;48.808;8.820;2023-07-16T03:47:54;1.55;;;0.80;;
70967;SDS011;58629;48.808;8.820;2023-07-16T03:50:19;0.75;;;0.68;;
70967;SDS011;58629;48.808;8.820;2023-07-16T03:52:45;2.03;;;1.00;;
70967;SDS011;58629;48.808;8.820;2023-07-16T03:55:10;1.50;;;1.10;;
70967;SDS011;58629;48.808;8.820;2023-07-16T03:57:36;1.13;;;0.80;;
70967;SDS011;58629;48.808;8.820;2023-07-16T04:00:02;1.90;;;0.70;;
70967;SDS011;58629;48.808;8.820;2023-07-16T04:02:29;1.15;;;0.70;;
70967;SDS011;58629;48.808;8.820;2023-07-16T04:04:54;1.17;;;0.83;;
70967;SDS011;58629;48.808;8.820;2023-07-16T04:07:20;0.63;;;0.63;;
70967;SDS011;58629;48.808;8.820;2023-07-16T04:09:45;3.47;;;1.20;;
70967;SDS011;58629;48.808;8.820;2023-07-16T04:12:10;2.07;;;0.87;;
70967;SDS011;58629;48.808;8.820;2023-07-16T04:14:36;3.50;;;1.10;;
70967;SDS011;58629;48.808;8.820;2023-07-16T04:17:01;1.20;;;0.80;;
70967;SDS011;58629;48.808;8.820;2023-07-16T04:19:27;2.75;;;1.20;;
70967;SDS011;58629;48.808;8.820;2023-07-16T04:21:53;2.25;;;1.15;;
70967;SDS011;58629;48.808;8.820;2023-07-16T04:24:18;1.43;;;0.97;;
70967;SDS011;58629;48.808;8.820;2023-07-16T04:26:43;7.15;;;1.55;;
70967;SDS011;58629;48.808;8.820;2023-07-16T04:29:09;4.50;;;1.20;;
70967;SDS011;58629;48.808;8.820;2023-07-16T04:31:34;1.67;;;1.00;;
70967;SDS011;58629;48.808;8.820;2023-07-16T04:34:00;1.52;;;1.02;;
70967;SDS011;58629;48.808;8.820;2023-07-16T04:36:25;2.70;;;0.98;;
70967;SDS011;58629;48.808;8.820;2023-07-16T04:38:50;2.07;;;1.20;;
70967;SDS011;58629;48.808;8.820;2023-07-16T04:41:16;3.40;;;1.50;;
70967;SDS011;58629;48.808;8.820;2023-07-16T04:43:41;2.00;;;1.00;;
70967;SDS011;58629;48.808;8.820;2023-07-16T04:46:06;2.47;;;1.23;;
70967;SDS011;58629;48.808;8.820;2023-07-16T04:48:32;2.43;;;1.20;;
70967;SDS011;58629;48.808;8.820;2023-07-16T04:50:57;3.63;;;1.30;;
70967;SDS011;58629;48.808;8.820;2023-07-16T04:53:23;3.97;;;1.30;;
70967;SDS011;58629;48.808;8.820;2023-07-16T04:55:48;3.25;;;1.20;;
70967;SDS011;58629;48.808;8.820;2023-07-16T04:58:15;2.60;;;1.27;;
70967;SDS011;58629;48.808;8.820;2023-07-16T05:00:41;2.77;;;1.10;;
70967;SDS011;58629;48.808;8.820;2023-07-16T05:03:06;4.07;;;1.70;;
70967;SDS011;58629;48.808;8.820;2023-07-16T05:05:32;1.87;;;1.30;;
70967;SDS011;58629;48.808;8.820;2023-07-16T05:07:57;3.92;;;1.40;;
70967;SDS011;58629;48.808;8.820;2023-07-16T05:10:23;2.40;;;0.97;;
70967;SDS011;58629;48.808;8.820;2023-07-16T05:12:48;1.40;;;0.90;;
70967;SDS011;58629;48.808;8.820;2023-07-16T05:15:14;3.83;;;1.20;;
70967;SDS011;58629;48.808;8.820;2023-07-16T05:17:40;1.63;;;0.98;;
70967;SDS011;58629;48.808;8.820;2023-07-16T05:20:05;1.50;;;0.80;;
70967;SDS011;58629;48.808;8.820;2023-07-16T05:22:32;2.08;;;0.80;;
70967;SDS011;58629;48.808;8.820;2023-07-16T05:24:57;2.38;;;0.95;;
70967;SDS011;58629;48.808;8.820;2023-07-16T05:27:23;1.30;;;0.70;;
70967;SDS011;58629;48.808;8.820;2023-07-16T05:29:48;1.70;;;0.93;;
70967;SDS011;58629;48.808;8.820;2023-07-16T05:32:13;1.30;;;0.80;;
70967;SDS011;58629;48.808;8.820;2023-07-16T05:34:39;1.40;;;0.87;;
70967;SDS011;58629;48.808;8.820;2023-07-16T05:37:04;2.23;;;1.00;;
70967;SDS011;58629;48.808;8.820;2023-07-16T05:39:30;1.13;;;0.73;;
70967;SDS011;58629;48.808;8.820;2023-07-16T05:41:55;0.80;;;0.80;;
70967;SDS011;58629;48.808;8.820;2023-07-16T05:44:21;1.43;;;0.80;;
70967;SDS011;58629;48.808;8.820;2023-07-16T05:46:46;2.33;;;0.85;;
70967;SDS011;58629;48.808;8.820;2023-07-16T05:49:11;1.63;;;0.90;;
70967;SDS011;58629;48.808;8.820;2023-07-16T05:51:38;1.55;;;0.90;;
70967;SDS011;58629;48.808;8.820;2023-07-16T05:54:04;1.63;;;1.03;;
70967;SDS011;58629;48.808;8.820;2023-07-16T05:56:29;1.47;;;0.90;;
70967;SDS011;58629;48.808;8.820;2023-07-16T05:58:54;1.33;;;0.90;;
70967;SDS011;58629;48.808;8.820;2023-07-16T06:01:21;1.58;;;1.00;;
70967;SDS011;58629;48.808;8.820;2023-07-16T06:03:46;1.70;;;0.80;;
70967;SDS011;58629;48.808;8.820;2023-07-16T06:06:11;1.33;;;0.70;;
70967;SDS011;58629;48.808;8.820;2023-07-16T06:08:37;0.90;;;0.80;;
70967;SDS011;58629;48.808;8.820;2023-07-16T06:11:02;0.83;;;0.70;;
70967;SDS011;58629;48.808;8.820;2023-07-16T06:13:29;1.33;;;0.95;;
70967;SDS011;58629;48.808;8.820;2023-07-16T06:15:54;2.87;;;1.10;;
70967;SDS011;58629;48.808;8.820;2023-07-16T06:18:19;1.30;;;0.90;;
70967;SDS011;58629;48.808;8.820;2023-07-16T06:20:45;1.65;;;0.90;;
70967;SDS011;58629;48.808;8.820;2023-07-16T06:23:11;2.00;;;1.07;;
70967;SDS011;58629;48.808;8.820;2023-07-16T06:25:37;1.27;;;0.88;;
70967;SDS011;58629;48.808;8.820;2023-07-16T06:28:02;1.10;;;0.90;;
70967;SDS011;58629;48.808;8.820;2023-07-16T06:30:28;1.52;;;0.98;;
70967;SDS011;58629;48.808;8.820;2023-07-16T06:32:55;0.90;;;0.68;;
70967;SDS011;58629;48.808;8.820;2023-07-16T06:35:21;2.10;;;1.10;;
70967;SDS011;58629;48.808;8.820;2023-07-16T06:37:46;1.30;;;0.90;;
70967;SDS011;58629;48.808;8.820;2023-07-16T06:40:12;1.10;;;0.70;;
70967;SDS011;58629;48.808;8.820;2023-07-16T06:42:37;2.90;;;1.40;;
70967;SDS011;58629;48.808;8.820;2023-07-16T06:45:03;4.57;;;1.73;;
70967;SDS011;58629;48.808;8.820;2023-07-16T06:47:28;2.63;;;1.10;;
70967;SDS011;58629;48.808;8.820;2023-07-16T06:49:53;1.77;;;1.10;;
70967;SDS011;58629;48.808;8.820;2023-07-16T06:52:20;0.97;;;0.87;;
70967;SDS011;58629;48.808;8.820;2023-07-16T06:54:52;1.25;;;0.90;;
70967;SDS011;58629;48.808;8.820;2023-07-16T06:57:18;3.25;;;1.40;;
70967;SDS011;58629;48.808;8.820;2023-07-16T06:59:43;1.87;;;1.10;;
70967;SDS011;58629;48.808;8.820;2023-07-16T07:02:09;2.90;;;1.47;;
70967;SDS011;58629;48.808;8.820;2023-07-16T07:04:34;2.08;;;1.00;;
70967;SDS011;58629;48.808;8.820;2023-07-16T07:06:59;1.88;;;1.00;;
70967;SDS011;58629;48.808;8.820;2023-07-16T07:09:24;1.50;;;1.03;;
70967;SDS011;58629;48.808;8.820;2023-07-16T07:11:50;2.47;;;1.20;;
70967;SDS011;58629;48.808;8.820;2023-07-16T07:14:15;2.67;;;1.27;;
70967;SDS011;58629;48.808;8.820;2023-07-16T07:16:40;2.90;;;1.50;;
70967;SDS011;58629;48.808;8.820;2023-07-16T07:19:06;4.23;;;1.40;;
70967;SDS011;58629;48.808;8.820;2023-07-16T07:21:31;2.80;;;1.50;;
70967;SDS011;58629;48.808;8.820;2023-07-16T07:23:56;3.60;;;1.40;;
70967;SDS011;58629;48.808;8.820;2023-07-16T07:26:22;2.85;;;1.30;;
70967;SDS011;58629;48.808;8.820;2023-07-16T07:28:47;2.63;;;1.40;;
70967;SDS011;58629;48.808;8.820;2023-07-16T07:31:13;2.83;;;1.40;;
70967;SDS011;58629;48.808;8.820;2023-07-16T07:33:38;2.53;;;1.43;;
70967;SDS011;58629;48.808;8.820;2023-07-16T07:36:03;1.70;;;1.20;;
70967;SDS011;58629;48.808;8.820;2023-07-16T07:38:29;3.47;;;1.40;;
70967;SDS011;58629;48.808;8.820;2023-07-16T07:40:54;3.17;;;1.20;;
70967;SDS011;58629;48.808;8.820;2023-07-16T07:43:19;2.93;;;1.40;;
70967;SDS011;58629;48.808;8.820;2023-07-16T07:45:45;4.17;;;1.30;;
70967;SDS011;58629;48.808;8.820;2023-07-16T07:48:10;3.77;;;1.40;;
70967;SDS011;58629;48.808;8.820;2023-07-16T07:50:35;3.73;;;1.40;;
70967;SDS011;58629;48.808;8.820;2023-07-16T07:53:01;2.60;;;1.23;;
70967;SDS011;58629;48.808;8.820;2023-07-16T07:55:26;2.10;;;1.38;;
70967;SDS011;58629;48.808;8.820;2023-07-16T07:57:51;2.07;;;1.37;;
70967;SDS011;58629;48.808;8.820;2023-07-16T08:00:17;3.37;;;1.30;;
70967;SDS011;58629;48.808;8.820;2023-07-16T08:02:42;3.33;;;1.40;;
70967;SDS011;58629;48.808;8.820;2023-07-16T08:05:07;3.43;;;1.23;;
70967;SDS011;58629;48.808;8.820;2023-07-16T08:07:33;2.95;;;1.30;;
70967;SDS011;58629;48.808;8.820;2023-07-16T08:09:58;5.93;;;1.33;;
70967;SDS011;58629;48.808;8.820;2023-07-16T08:12:24;6.47;;;1.63;;
70967;SDS011;58629;48.808;8.820;2023-07-16T08:14:49;2.90;;;1.33;;
70967;SDS011;58629;48.808;8.820;2023-07-16T08:17:14;3.60;;;1.40;;
70967;SDS011;58629;48.808;8.820;2023-07-16T08:19:39;4.17;;;1.70;;
70967;SDS011;58629;48.808;8.820;2023-07-16T08:22:05;3.80;;;1.40;;
70967;SDS011;58629;48.808;8.820;2023-07-16T08:24:30;2.60;;;1.03;;
70967;SDS011;58629;48.808;8.820;2023-07-16T08:26:56;3.43;;;1.23;;
70967;SDS011;58629;48.808;8.820;2023-07-16T08:29:21;4.35;;;1.27;;
70967;SDS011;58629;48.808;8.820;2023-07-16T08:31:46;4.63;;;1.13;;
70967;SDS011;58629;48.808;8.820;2023-07-16T08:34:11;3.37;;;1.40;;
70967;SDS011;58629;48.808;8.820;2023-07-16T08:36:37;3.87;;;1.30;;
70967;SDS011;58629;48.808;8.820;2023-07-16T08:39:03;1.83;;;1.20;;
70967;SDS011;58629;48.808;8.820;2023-07-16T08:41:29;2.73;;;1.50;;
70967;SDS011;58629;48.808;8.820;2023-07-16T08:43:55;3.00;;;1.40;;
70967;SDS011;58629;48.808;8.820;2023-07-16T08:46:21;5.93;;;1.30;;
70967;SDS011;58629;48.808;8.820;2023-07-16T08:48:47;3.38;;;1.55;;
70967;SDS011;58629;48.808;8.820;2023-07-16T08:51:14;2.65;;;1.10;;
70967;SDS011;58629;48.808;8.820;2023-07-16T08:53:41;2.17;;;1.20;;
70967;SDS011;58629;48.808;8.820;2023-07-16T08:56:07;1.75;;;1.10;;
70967;SDS011;58629;48.808;8.820;2023-07-16T08:58:32;1.70;;;1.10;;
70967;SDS011;58629;48.808;8.820;2023-07-16T09:00:58;2.15;;;1.00;;
70967;SDS011;58629;48.808;8.820;2023-07-16T09:03:25;2.10;;;1.10;;
70967;SDS011;58629;48.808;8.820;2023-07-16T09:05:51;2.57;;;1.40;;
70967;SDS011;58629;48.808;8.820;2023-07-16T09:08:18;1.60;;;1.05;;
70967;SDS011;58629;48.808;8.820;2023-07-16T09:10:44;1.77;;;1.20;;
70967;SDS011;58629;48.808;8.820;2023-07-16T09:13:09;1.73;;;1.20;;
70967;SDS011;58629;48.808;8.820;2023-07-16T09:15:35;2.23;;;1.43;;
70967;SDS011;58629;48.808;8.820;2023-07-16T09:18:01;2.35;;;1.30;;
70967;SDS011;58629;48.808;8.820;2023-07-16T09:20:27;3.97;;;1.45;;
70967;SDS011;58629;48.808;8.820;2023-07-16T09:22:58;3.58;;;1.38;;
70967;SDS011;58629;48.808;8.820;2023-07-16T09:25:27;2.20;;;1.40;;
70967;SDS011;58629;48.808;8.820;2023-07-16T09:27:54;2.07;;;1.23;;
70967;SDS011;58629;48.808;8.820;2023-07-16T09:30:19;1.88;;;1.20;;
70967;SDS011;58629;48.808;8.820;2023-07-16T09:32:45;1.93;;;1.40;;
70967;SDS011;58629;48.808;8.820;2023-07-16T09:35:13;2.53;;;1.60;;
70967;SDS011;58629;48.808;8.820;2023-07-16T09:37:40;7.13;;;1.60;;
70967;SDS011;58629;48.808;8.820;2023-07-16T09:40:06;2.55;;;1.33;;
70967;SDS011;58629;48.808;8.820;2023-07-16T09:42:38;1.30;;;1.10;;
70967;SDS011;58629;48.808;8.820;2023-07-16T09:45:06;2.65;;;1.40;;
70967;SDS011;58629;48.808;8.820;2023-07-16T09:47:33;2.88;;;1.40;;
70967;SDS011;58629;48.808;8.820;2023-07-16T09:49:59;2.83;;;1.48;;
70967;SDS011;58629;48.808;8.820;2023-07-16T09:52:25;2.50;;;1.40;;
70967;SDS011;58629;48.808;8.820;2023-07-16T09:54:52;2.80;;;1.40;;
70967;SDS011;58629;48.808;8.820;2023-07-16T09:57:20;3.38;;;1.40;;
70967;SDS011;58629;48.808;8.820;2023-07-16T09:59:49;1.85;;;1.30;;
70967;SDS011;58629;48.808;8.820;2023-07-16T10:02:17;2.67;;;1.40;;
70967;SDS011;58629;48.808;8.820;2023-07-16T10:04:43;4.13;;;1.70;;
70967;SDS011;58629;48.808;8.820;2023-07-16T10:07:21;3.43;;;1.60;;
70967;SDS011;58629;48.808;8.820;2023-07-16T10:12:19;3.13;;;1.60;;
70967;SDS011;58629;48.808;8.820;2023-07-16T10:14:46;2.47;;;1.35;;
70967;SDS011;58629;48.808;8.820;2023-07-16T10:17:19;2.22;;;1.30;;
70967;SDS011;58629;48.808;8.820;2023-07-16T10:20:28;2.80;;;1.48;;
70967;SDS011;58629;48.808;8.820;2023-07-16T10:22:41;4.03;;;1.40;;
70967;SDS011;58629;48.808;8.820;2023-07-16T10:27:44;2.88;;;1.50;;
70967;SDS011;58629;48.808;8.820;2023-07-16T10:30:11;3.28;;;1.40;;
70967;SDS011;58629;48.808;8.820;2023-07-16T10:32:37;3.83;;;1.37;;
70967;SDS011;58629;48.808;8.820;2023-07-16T10:35:03;2.95;;;1.40;;
70967;SDS011;58629;48.808;8.820;2023-07-16T10:37:30;2.40;;;1.60;;
70967;SDS011;58629;48.808;8.820;2023-07-16T10:39:56;2.17;;;1.50;;
70967;SDS011;58629;48.808;8.820;2023-07-16T10:42:23;2.92;;;1.20;;
70967;SDS011;58629;48.808;8.820;2023-07-16T10:44:50;2.00;;;1.55;;
70967;SDS011;58629;48.808;8.820;2023-07-16T10:47:18;2.63;;;1.63;;
70967;SDS011;58629;48.808;8.820;2023-07-16T10:50:04;2.30;;;1.30;;
70967;SDS011;58629;48.808;8.820;2023-07-16T10:52:30;2.05;;;1.58;;
70967;SDS011;58629;48.808;8.820;2023-07-16T10:54:56;3.10;;;1.80;;
70967;SDS011;58629;48.808;8.820;2023-07-16T10:57:22;3.53;;;1.63;;
70967;SDS011;58629;48.808;8.820;2023-07-16T10:59:50;2.15;;;1.40;;
70967;SDS011;58629;48.808;8.820;2023-07-16T11:02:16;1.90;;;1.60;;
70967;SDS011;58629;48.808;8.820;2023-07-16T11:04:43;2.10;;;1.60;;
70967;SDS011;58629;48.808;8.820;2023-07-16T11:07:10;2.78;;;1.67;;
70967;SDS011;58629;48.808;8.820;2023-07-16T11:09:44;2.10;;;1.90;;
70967;SDS011;58629;48.808;8.820;2023-07-16T11:12:13;2.33;;;1.60;;
70967;SDS011;58629;48.808;8.820;2023-07-16T11:14:43;1.83;;;1.20;;
70967;SDS011;58629;48.808;8.820;2023-07-16T11:17:11;1.83;;;1.38;;
70967;SDS011;58629;48.808;8.820;2023-07-16T11:19:37;2.53;;;1.60;;
70967;SDS011;58629;48.808;8.820;2023-07-16T11:22:03;1.83;;;1.27;;
70967;SDS011;58629;48.808;8.820;2023-07-16T11:25:04;1.77;;;1.30;;
70967;SDS011;58629;48.808;8.820;2023-07-16T11:27:25;1.67;;;1.30;;
70967;SDS011;58629;48.808;8.820;2023-07-16T11:29:56;1.50;;;1.35;;
70967;SDS011;58629;48.808;8.820;2023-07-16T11:32:32;3.22;;;1.60;;
70967;SDS011;58629;48.808;8.820;2023-07-16T11:35:00;2.22;;;1.60;;
70967;SDS011;58629;48.808;8.820;2023-07-16T11:37:27;1.85;;;1.50;;
70967;SDS011;58629;48.808;8.820;2023-07-16T11:39:57;2.80;;;1.67;;
70967;SDS011;58629;48.808;8.820;2023-07-16T11:42:29;1.40;;;1.30;;
70967;SDS011;58629;48.808;8.820;2023-07-16T11:44:56;2.42;;;1.70;;
70967;SDS011;58629;48.808;8.820;2023-07-16T11:47:22;3.30;;;1.60;;
70967;SDS011;58629;48.808;8.820;2023-07-16T11:49:48;2.77;;;1.73;;
70967;SDS011;58629;48.808;8.820;2023-07-16T11:52:14;1.73;;;1.60;;
70967;SDS011;58629;48.808;8.820;2023-07-16T11:54:40;2.00;;;1.60;;
70967;SDS011;58629;48.808;8.820;2023-07-16T11:57:05;2.87;;;1.80;;
70967;SDS011;58629;48.808;8.820;2023-07-16T11:59:31;1.73;;;1.50;;
70967;SDS011;58629;48.808;8.820;2023-07-16T12:01:56;1.97;;;1.50;;
70967;SDS011;58629;48.808;8.820;2023-07-16T12:04:22;1.65;;;1.42;;
70967;SDS011;58629;48.808;8.820;2023-07-16T12:06:47;1.40;;;1.30;;
70967;SDS011;58629;48.808;8.820;2023-07-16T12:09:13;2.80;;;1.80;;
70967;SDS011;58629;48.808;8.820;2023-07-16T12:11:38;2.13;;;1.33;;
70967;SDS011;58629;48.808;8.820;2023-07-16T12:14:04;1.77;;;1.40;;
70967;SDS011;58629;48.808;8.820;2023-07-16T12:16:30;2.33;;;1.65;;
70967;SDS011;58629;48.808;8.820;2023-07-16T12:18:56;2.63;;;1.70;;
70967;SDS011;58629;48.808;8.820;2023-07-16T12:21:21;2.90;;;1.70;;
70967;SDS011;58629;48.808;8.820;2023-07-16T12:23:46;2.07;;;1.53;;
70967;SDS011;58629;48.808;8.820;2023-07-16T12:26:12;2.03;;;1.48;;
70967;SDS011;58629;48.808;8.820;2023-07-16T12:28:38;2.10;;;1.50;;
70967;SDS011;58629;48.808;8.820;2023-07-16T12:31:03;2.43;;;1.40;;
70967;SDS011;58629;48.808;8.820;2023-07-16T12:33:28;2.75;;;1.80;;
70967;SDS011;58629;48.808;8.820;2023-07-16T12:35:54;2.63;;;1.80;;
70967;SDS011;58629;48.808;8.820;2023-07-16T12:38:19;2.40;;;1.70;;
70967;SDS011;58629;48.808;8.820;2023-07-16T12:40:44;1.90;;;1.60;;
70967;SDS011;58629;48.808;8.820;2023-07-16T12:43:10;1.93;;;1.70;;
70967;SDS011;58629;48.808;8.820;2023-07-16T12:45:35;1.77;;;1.67;;
70967;SDS011;58629;48.808;8.820;2023-07-16T12:48:00;2.07;;;1.50;;
70967;SDS011;58629;48.808;8.820;2023-07-16T12:50:26;2.17;;;1.70;;
70967;SDS011;58629;48.808;8.820;2023-07-16T12:52:53;2.10;;;1.40;;
70967;SDS011;58629;48.808;8.820;2023-07-16T12:55:19;2.42;;;1.50;;
70967;SDS011;58629;48.808;8.820;2023-07-16T12:57:44;2.80;;;1.57;;
70967;SDS011;58629;48.808;8.820;2023-07-16T13:00:10;1.87;;;1.60;;
70967;SDS011;58629;48.808;8.820;2023-07-16T13:02:35;2.07;;;1.50;;
70967;SDS011;58629;48.808;8.820;2023-07-16T13:05:01;2.15;;;1.60;;
70967;SDS011;58629;48.808;8.820;2023-07-16T13:07:27;1.58;;;1.45;;
70967;SDS011;58629;48.808;8.820;2023-07-16T13:09:52;3.00;;;1.60;;
70967;SDS011;58629;48.808;8.820;2023-07-16T13:12:17;2.30;;;1.70;;
70967;SDS011;58629;48.808;8.820;2023-07-16T13:14:43;2.23;;;1.60;;
70967;SDS011;58629;48.808;8.820;2023-07-16T13:17:08;2.80;;;1.63;;
70967;SDS011;58629;48.808;8.820;2023-07-16T13:19:34;2.60;;;1.60;;
70967;SDS011;58629;48.808;8.820;2023-07-16T13:21:59;2.60;;;1.70;;
70967;SDS011;58629;48.808;8.820;2023-07-16T13:24:24;2.20;;;1.50;;
70967;SDS011;58629;48.808;8.820;2023-07-16T13:26:50;1.67;;;1.57;;
70967;SDS011;58629;48.808;8.820;2023-07-16T13:29:16;1.90;;;1.50;;
70967;SDS011;58629;48.808;8.820;2023-07-16T13:31:41;2.20;;;1.70;;
70967;SDS011;58629;48.808;8.820;2023-07-16T13:34:06;2.97;;;1.87;;
70967;SDS011;58629;48.808;8.820;2023-07-16T13:36:31;2.33;;;1.80;;
70967;SDS011;58629;48.808;8.820;2023-07-16T13:38:57;2.63;;;1.63;;
70967;SDS011;58629;48.808;8.820;2023-07-16T13:41:22;3.50;;;1.83;;
70967;SDS011;58629;48.808;8.820;2023-07-16T13:43:47;3.23;;;1.60;;
70967;SDS011;58629;48.808;8.820;2023-07-16T13:46:13;3.43;;;2.03;;
70967;SDS011;58629;48.808;8.820;2023-07-16T13:48:38;2.60;;;1.70;;
70967;SDS011;58629;48.808;8.820;2023-07-16T13:51:04;2.58;;;1.80;;
70967;SDS011;58629;48.808;8.820;2023-07-16T13:53:30;3.53;;;1.80;;
70967;SDS011;58629;48.808;8.820;2023-07-16T13:55:55;2.03;;;1.77;;
70967;SDS011;58629;48.808;8.820;2023-07-16T13:58:20;2.93;;;1.90;;
70967;SDS011;58629;48.808;8.820;2023-07-16T14:00:45;2.60;;;1.90;;
70967;SDS011;58629;48.808;8.820;2023-07-16T14:03:11;2.93;;;1.67;;
70967;SDS011;58629;48.808;8.820;2023-07-16T14:05:36;3.73;;;1.80;;
70967;SDS011;58629;48.808;8.820;2023-07-16T14:08:04;2.58;;;1.50;;
70967;SDS011;58629;48.808;8.820;2023-07-16T14:10:30;3.30;;;1.70;;
70967;SDS011;58629;48.808;8.820;2023-07-16T14:12:55;1.97;;;1.60;;
70967;SDS011;58629;48.808;8.820;2023-07-16T14:15:20;2.80;;;1.60;;
70967;SDS011;58629;48.808;8.820;2023-07-16T14:17:46;2.30;;;1.57;;
70967;SDS011;58629;48.808;8.820;2023-07-16T14:20:11;3.43;;;1.80;;
70967;SDS011;58629;48.808;8.820;2023-07-16T14:22:36;2.00;;;1.63;;
70967;SDS011;58629;48.808;8.820;2023-07-16T14:25:02;2.30;;;1.60;;
70967;SDS011;58629;48.808;8.820;2023-07-16T14:27:28;4.68;;;2.03;;
70967;SDS011;58629;48.808;8.820;2023-07-16T14:29:54;2.13;;;1.73;;
70967;SDS011;58629;48.808;8.820;2023-07-16T14:32:19;3.33;;;1.80;;
70967;SDS011;58629;48.808;8.820;2023-07-16T14:34:44;4.07;;;1.97;;
70967;SDS011;58629;48.808;8.820;2023-07-16T14:37:10;3.87;;;1.83;;
70967;SDS011;58629;48.808;8.820;2023-07-16T14:39:35;2.30;;;1.90;;
70967;SDS011;58629;48.808;8.820;2023-07-16T14:42:00;3.30;;;2.00;;
70967;SDS011;58629;48.808;8.820;2023-07-16T14:44:28;5.67;;;1.90;;
70967;SDS011;58629;48.808;8.820;2023-07-16T14:46:54;2.17;;;1.80;;
70967;SDS011;58629;48.808;8.820;2023-07-16T14:49:19;3.67;;;1.90;;